sensor_id;sensor_type;location;lat;lon;timestamp;P1;durP1;ratioP1;P2;durP2;ratioP2
43678;SDS011;29279;50.858;4.392;2022-07-22T00:00:12;20.23;;;4.43;;
43678;SDS011;29279;50.858;4.392;2022-07-22T00:02:39;19.65;;;4.18;;
43678;SDS011;29279;50.858;4.392;2022-07-22T00:05:05;18.25;;;4.18;;
43678;SDS011;29279;50.858;4.392;2022-07-22T00:07:32;20.63;;;5.07;;
43678;SDS011;29279;50.858;4.392;2022-07-22T00:09:57;25.20;;;4.75;;
43678;SDS011;29279;50.858;4.392;2022-07-22T00:12:24;19.50;;;4.63;;
43678;SDS011;29279;50.858;4.392;2022-07-22T00:14:50;27.40;;;4.93;;
43678;SDS011;29279;50.858;4.392;2022-07-22T00:17:15;19.73;;;4.40;;
43678;SDS011;29279;50.858;4.392;2022-07-22T00:19:41;27.70;;;5.03;;
43678;SDS011;29279;50.858;4.392;2022-07-22T00:22:07;20.23;;;4.35;;
43678;SDS011;29279;50.858;4.392;2022-07-22T00:24:33;22.38;;;4.55;;
43678;SDS011;29279;50.858;4.392;2022-07-22T00:26:59;21.65;;;5.15;;
43678;SDS011;29279;50.858;4.392;2022-07-22T00:29:24;18.30;;;4.88;;
43678;SDS011;29279;50.858;4.392;2022-07-22T00:31:50;24.05;;;4.75;;
43678;SDS011;29279;50.858;4.392;2022-07-22T00:34:16;22.92;;;4.65;;
43678;SDS011;29279;50.858;4.392;2022-07-22T00:36:42;25.10;;;4.80;;
43678;SDS011;29279;50.858;4.392;2022-07-22T00:39:07;19.13;;;4.40;;
43678;SDS011;29279;50.858;4.392;2022-07-22T00:41:33;19.77;;;4.47;;
43678;SDS011;29279;50.858;4.392;2022-07-22T00:46:26;21.42;;;5.03;;
43678;SDS011;29279;50.858;4.392;2022-07-22T00:48:53;25.00;;;5.15;;
43678;SDS011;29279;50.858;4.392;2022-07-22T00:51:20;19.08;;;4.68;;
43678;SDS011;29279;50.858;4.392;2022-07-22T00:53:47;19.33;;;5.07;;
43678;SDS011;29279;50.858;4.392;2022-07-22T00:56:13;26.85;;;5.07;;
43678;SDS011;29279;50.858;4.392;2022-07-22T00:58:40;19.83;;;5.03;;
43678;SDS011;29279;50.858;4.392;2022-07-22T01:01:06;19.63;;;4.95;;
43678;SDS011;29279;50.858;4.392;2022-07-22T01:03:32;20.95;;;4.60;;
43678;SDS011;29279;50.858;4.392;2022-07-22T01:05:58;21.30;;;4.90;;
43678;SDS011;29279;50.858;4.392;2022-07-22T01:08:24;21.15;;;4.90;;
43678;SDS011;29279;50.858;4.392;2022-07-22T01:10:49;24.90;;;5.03;;
43678;SDS011;29279;50.858;4.392;2022-07-22T01:13:16;18.13;;;4.30;;
43678;SDS011;29279;50.858;4.392;2022-07-22T01:15:42;18.75;;;4.20;;
43678;SDS011;29279;50.858;4.392;2022-07-22T01:18:08;22.73;;;4.65;;
43678;SDS011;29279;50.858;4.392;2022-07-22T01:20:34;24.48;;;4.75;;
43678;SDS011;29279;50.858;4.392;2022-07-22T01:23:01;21.40;;;5.30;;
43678;SDS011;29279;50.858;4.392;2022-07-22T01:25:27;30.55;;;8.35;;
43678;SDS011;29279;50.858;4.392;2022-07-22T01:27:53;18.40;;;5.45;;
43678;SDS011;29279;50.858;4.392;2022-07-22T01:30:19;18.65;;;4.30;;
43678;SDS011;29279;50.858;4.392;2022-07-22T01:32:45;16.35;;;5.07;;
43678;SDS011;29279;50.858;4.392;2022-07-22T01:35:11;27.25;;;5.07;;
43678;SDS011;29279;50.858;4.392;2022-07-22T01:37:36;25.70;;;5.03;;
43678;SDS011;29279;50.858;4.392;2022-07-22T01:40:02;22.58;;;4.97;;
43678;SDS011;29279;50.858;4.392;2022-07-22T01:42:29;21.17;;;5.53;;
43678;SDS011;29279;50.858;4.392;2022-07-22T01:44:55;19.90;;;4.70;;
43678;SDS011;29279;50.858;4.392;2022-07-22T01:47:20;27.55;;;5.68;;
43678;SDS011;29279;50.858;4.392;2022-07-22T01:49:46;28.58;;;5.25;;
43678;SDS011;29279;50.858;4.392;2022-07-22T01:52:12;31.10;;;5.20;;
43678;SDS011;29279;50.858;4.392;2022-07-22T01:54:37;22.95;;;4.72;;
43678;SDS011;29279;50.858;4.392;2022-07-22T01:57:03;18.90;;;4.93;;
43678;SDS011;29279;50.858;4.392;2022-07-22T01:59:29;26.83;;;5.50;;
43678;SDS011;29279;50.858;4.392;2022-07-22T02:01:55;21.17;;;4.78;;
43678;SDS011;29279;50.858;4.392;2022-07-22T02:04:20;25.85;;;6.15;;
43678;SDS011;29279;50.858;4.392;2022-07-22T02:06:46;16.58;;;5.53;;
43678;SDS011;29279;50.858;4.392;2022-07-22T02:09:12;23.98;;;5.07;;
43678;SDS011;29279;50.858;4.392;2022-07-22T02:11:38;25.52;;;6.20;;
43678;SDS011;29279;50.858;4.392;2022-07-22T02:14:04;21.83;;;5.50;;
43678;SDS011;29279;50.858;4.392;2022-07-22T02:16:29;18.45;;;5.45;;
43678;SDS011;29279;50.858;4.392;2022-07-22T02:18:55;23.85;;;5.80;;
43678;SDS011;29279;50.858;4.392;2022-07-22T02:21:21;23.17;;;5.80;;
43678;SDS011;29279;50.858;4.392;2022-07-22T02:23:48;20.92;;;5.03;;
43678;SDS011;29279;50.858;4.392;2022-07-22T02:26:13;21.10;;;5.38;;
43678;SDS011;29279;50.858;4.392;2022-07-22T02:28:39;24.05;;;5.28;;
43678;SDS011;29279;50.858;4.392;2022-07-22T02:31:05;21.55;;;5.03;;
43678;SDS011;29279;50.858;4.392;2022-07-22T02:33:30;22.50;;;5.30;;
43678;SDS011;29279;50.858;4.392;2022-07-22T02:35:56;26.40;;;6.15;;
43678;SDS011;29279;50.858;4.392;2022-07-22T02:38:23;23.92;;;5.28;;
43678;SDS011;29279;50.858;4.392;2022-07-22T02:40:48;18.23;;;5.13;;
43678;SDS011;29279;50.858;4.392;2022-07-22T02:43:14;22.02;;;5.22;;
43678;SDS011;29279;50.858;4.392;2022-07-22T02:45:41;18.83;;;5.07;;
43678;SDS011;29279;50.858;4.392;2022-07-22T02:48:07;20.15;;;4.30;;
43678;SDS011;29279;50.858;4.392;2022-07-22T02:50:32;19.45;;;5.00;;
43678;SDS011;29279;50.858;4.392;2022-07-22T02:52:59;22.17;;;5.07;;
43678;SDS011;29279;50.858;4.392;2022-07-22T02:55:25;16.50;;;4.93;;
43678;SDS011;29279;50.858;4.392;2022-07-22T02:57:51;20.77;;;4.95;;
43678;SDS011;29279;50.858;4.392;2022-07-22T03:00:16;21.95;;;6.15;;
43678;SDS011;29279;50.858;4.392;2022-07-22T03:02:42;20.13;;;4.70;;
43678;SDS011;29279;50.858;4.392;2022-07-22T03:05:08;21.58;;;5.18;;
43678;SDS011;29279;50.858;4.392;2022-07-22T03:07:34;25.83;;;5.57;;
43678;SDS011;29279;50.858;4.392;2022-07-22T03:10:00;24.00;;;5.03;;
43678;SDS011;29279;50.858;4.392;2022-07-22T03:12:26;20.92;;;5.20;;
43678;SDS011;29279;50.858;4.392;2022-07-22T03:14:52;17.17;;;5.13;;
43678;SDS011;29279;50.858;4.392;2022-07-22T03:17:17;19.40;;;4.95;;
43678;SDS011;29279;50.858;4.392;2022-07-22T03:19:44;17.67;;;5.68;;
43678;SDS011;29279;50.858;4.392;2022-07-22T03:22:10;21.88;;;5.28;;
43678;SDS011;29279;50.858;4.392;2022-07-22T03:24:35;17.60;;;4.38;;
43678;SDS011;29279;50.858;4.392;2022-07-22T03:27:01;23.67;;;4.63;;
43678;SDS011;29279;50.858;4.392;2022-07-22T03:29:27;19.27;;;5.03;;
43678;SDS011;29279;50.858;4.392;2022-07-22T03:31:52;17.70;;;4.68;;
43678;SDS011;29279;50.858;4.392;2022-07-22T03:34:18;25.60;;;5.18;;
43678;SDS011;29279;50.858;4.392;2022-07-22T03:36:44;18.73;;;4.43;;
43678;SDS011;29279;50.858;4.392;2022-07-22T03:39:09;19.17;;;4.07;;
43678;SDS011;29279;50.858;4.392;2022-07-22T03:41:35;17.35;;;3.67;;
43678;SDS011;29279;50.858;4.392;2022-07-22T03:44:01;22.63;;;4.53;;
43678;SDS011;29279;50.858;4.392;2022-07-22T03:46:26;19.80;;;4.53;;
43678;SDS011;29279;50.858;4.392;2022-07-22T03:48:52;21.48;;;5.15;;
43678;SDS011;29279;50.858;4.392;2022-07-22T03:51:18;16.75;;;4.25;;
43678;SDS011;29279;50.858;4.392;2022-07-22T03:53:43;21.08;;;4.85;;
43678;SDS011;29279;50.858;4.392;2022-07-22T03:56:09;20.02;;;5.38;;
43678;SDS011;29279;50.858;4.392;2022-07-22T03:58:35;28.50;;;6.97;;
43678;SDS011;29279;50.858;4.392;2022-07-22T04:01:00;19.65;;;4.88;;
43678;SDS011;29279;50.858;4.392;2022-07-22T04:03:26;23.40;;;5.05;;
43678;SDS011;29279;50.858;4.392;2022-07-22T04:05:52;19.45;;;5.25;;
43678;SDS011;29279;50.858;4.392;2022-07-22T04:08:17;22.60;;;5.57;;
43678;SDS011;29279;50.858;4.392;2022-07-22T04:10:44;21.98;;;4.35;;
43678;SDS011;29279;50.858;4.392;2022-07-22T04:13:09;17.88;;;5.18;;
43678;SDS011;29279;50.858;4.392;2022-07-22T04:15:36;16.63;;;4.90;;
43678;SDS011;29279;50.858;4.392;2022-07-22T04:18:02;16.17;;;4.60;;
43678;SDS011;29279;50.858;4.392;2022-07-22T04:20:28;20.08;;;5.18;;
43678;SDS011;29279;50.858;4.392;2022-07-22T04:22:54;8.48;;;2.33;;
43678;SDS011;29279;50.858;4.392;2022-07-22T04:25:19;15.10;;;3.30;;
43678;SDS011;29279;50.858;4.392;2022-07-22T04:27:45;16.15;;;3.85;;
43678;SDS011;29279;50.858;4.392;2022-07-22T04:30:11;13.98;;;3.22;;
43678;SDS011;29279;50.858;4.392;2022-07-22T04:32:36;14.63;;;3.35;;
43678;SDS011;29279;50.858;4.392;2022-07-22T04:35:02;13.13;;;3.38;;
43678;SDS011;29279;50.858;4.392;2022-07-22T04:37:29;13.60;;;4.25;;
43678;SDS011;29279;50.858;4.392;2022-07-22T04:39:56;9.88;;;3.33;;
43678;SDS011;29279;50.858;4.392;2022-07-22T04:42:21;16.40;;;3.58;;
43678;SDS011;29279;50.858;4.392;2022-07-22T04:44:47;9.85;;;2.88;;
43678;SDS011;29279;50.858;4.392;2022-07-22T04:47:13;12.90;;;3.13;;
43678;SDS011;29279;50.858;4.392;2022-07-22T04:49:38;16.35;;;3.88;;
43678;SDS011;29279;50.858;4.392;2022-07-22T04:52:04;7.47;;;2.33;;
43678;SDS011;29279;50.858;4.392;2022-07-22T04:54:30;15.38;;;3.50;;
43678;SDS011;29279;50.858;4.392;2022-07-22T04:56:55;11.40;;;3.05;;
43678;SDS011;29279;50.858;4.392;2022-07-22T04:59:21;21.35;;;3.95;;
43678;SDS011;29279;50.858;4.392;2022-07-22T05:01:47;13.48;;;4.13;;
43678;SDS011;29279;50.858;4.392;2022-07-22T05:04:13;16.00;;;3.60;;
43678;SDS011;29279;50.858;4.392;2022-07-22T05:06:38;13.35;;;3.72;;
43678;SDS011;29279;50.858;4.392;2022-07-22T05:09:04;11.77;;;2.85;;
43678;SDS011;29279;50.858;4.392;2022-07-22T05:11:30;16.02;;;3.88;;
43678;SDS011;29279;50.858;4.392;2022-07-22T05:13:56;16.00;;;3.45;;
43678;SDS011;29279;50.858;4.392;2022-07-22T05:16:21;19.48;;;3.10;;
43678;SDS011;29279;50.858;4.392;2022-07-22T05:18:47;16.92;;;4.57;;
43678;SDS011;29279;50.858;4.392;2022-07-22T05:21:13;11.82;;;2.83;;
43678;SDS011;29279;50.858;4.392;2022-07-22T05:23:38;14.32;;;3.20;;
43678;SDS011;29279;50.858;4.392;2022-07-22T05:26:04;15.07;;;3.03;;
43678;SDS011;29279;50.858;4.392;2022-07-22T05:28:30;14.75;;;3.97;;
43678;SDS011;29279;50.858;4.392;2022-07-22T05:30:56;14.15;;;3.97;;
43678;SDS011;29279;50.858;4.392;2022-07-22T05:33:22;19.45;;;4.75;;
43678;SDS011;29279;50.858;4.392;2022-07-22T05:35:47;17.10;;;6.63;;
43678;SDS011;29279;50.858;4.392;2022-07-22T05:38:13;19.95;;;5.60;;
43678;SDS011;29279;50.858;4.392;2022-07-22T05:40:39;16.17;;;5.10;;
43678;SDS011;29279;50.858;4.392;2022-07-22T05:43:05;13.05;;;3.70;;
43678;SDS011;29279;50.858;4.392;2022-07-22T05:45:30;15.15;;;4.60;;
43678;SDS011;29279;50.858;4.392;2022-07-22T05:47:56;15.18;;;4.18;;
43678;SDS011;29279;50.858;4.392;2022-07-22T05:50:21;14.50;;;4.15;;
43678;SDS011;29279;50.858;4.392;2022-07-22T05:52:47;17.23;;;4.65;;
43678;SDS011;29279;50.858;4.392;2022-07-22T05:55:13;13.50;;;4.80;;
43678;SDS011;29279;50.858;4.392;2022-07-22T05:57:38;20.70;;;5.20;;
43678;SDS011;29279;50.858;4.392;2022-07-22T06:00:04;19.63;;;8.07;;
43678;SDS011;29279;50.858;4.392;2022-07-22T06:02:31;17.63;;;5.00;;
43678;SDS011;29279;50.858;4.392;2022-07-22T06:04:57;30.48;;;7.55;;
43678;SDS011;29279;50.858;4.392;2022-07-22T06:07:25;33.10;;;8.48;;
43678;SDS011;29279;50.858;4.392;2022-07-22T06:09:51;32.70;;;7.22;;
43678;SDS011;29279;50.858;4.392;2022-07-22T06:12:17;31.38;;;7.30;;
43678;SDS011;29279;50.858;4.392;2022-07-22T06:14:42;29.35;;;6.85;;
43678;SDS011;29279;50.858;4.392;2022-07-22T06:17:08;31.48;;;7.18;;
43678;SDS011;29279;50.858;4.392;2022-07-22T06:19:34;24.85;;;5.55;;
43678;SDS011;29279;50.858;4.392;2022-07-22T06:22:00;18.95;;;4.40;;
43678;SDS011;29279;50.858;4.392;2022-07-22T06:24:26;20.30;;;6.65;;
43678;SDS011;29279;50.858;4.392;2022-07-22T06:26:52;17.52;;;4.72;;
43678;SDS011;29279;50.858;4.392;2022-07-22T06:29:18;14.43;;;5.07;;
43678;SDS011;29279;50.858;4.392;2022-07-22T06:31:44;16.98;;;6.40;;
43678;SDS011;29279;50.858;4.392;2022-07-22T06:34:09;15.02;;;4.88;;
43678;SDS011;29279;50.858;4.392;2022-07-22T06:36:35;15.25;;;3.88;;
43678;SDS011;29279;50.858;4.392;2022-07-22T06:39:01;12.50;;;3.95;;
43678;SDS011;29279;50.858;4.392;2022-07-22T06:41:27;16.10;;;4.68;;
43678;SDS011;29279;50.858;4.392;2022-07-22T06:43:54;9.85;;;3.00;;
43678;SDS011;29279;50.858;4.392;2022-07-22T06:46:19;10.63;;;3.38;;
43678;SDS011;29279;50.858;4.392;2022-07-22T06:48:45;17.77;;;3.47;;
43678;SDS011;29279;50.858;4.392;2022-07-22T06:51:11;12.27;;;3.90;;
43678;SDS011;29279;50.858;4.392;2022-07-22T06:53:36;13.38;;;3.47;;
43678;SDS011;29279;50.858;4.392;2022-07-22T06:56:02;11.82;;;3.17;;
43678;SDS011;29279;50.858;4.392;2022-07-22T06:58:28;8.13;;;3.08;;
43678;SDS011;29279;50.858;4.392;2022-07-22T07:00:54;9.57;;;2.80;;
43678;SDS011;29279;50.858;4.392;2022-07-22T07:03:20;16.15;;;4.90;;
43678;SDS011;29279;50.858;4.392;2022-07-22T07:05:47;13.25;;;3.72;;
43678;SDS011;29279;50.858;4.392;2022-07-22T07:08:12;17.05;;;4.55;;
43678;SDS011;29279;50.858;4.392;2022-07-22T07:10:38;11.57;;;3.08;;
43678;SDS011;29279;50.858;4.392;2022-07-22T07:13:03;7.80;;;3.10;;
43678;SDS011;29279;50.858;4.392;2022-07-22T07:15:29;12.13;;;3.38;;
43678;SDS011;29279;50.858;4.392;2022-07-22T07:17:55;12.88;;;3.45;;
43678;SDS011;29279;50.858;4.392;2022-07-22T07:20:22;7.57;;;2.90;;
43678;SDS011;29279;50.858;4.392;2022-07-22T07:22:49;9.43;;;3.03;;
43678;SDS011;29279;50.858;4.392;2022-07-22T07:25:15;8.50;;;3.38;;
43678;SDS011;29279;50.858;4.392;2022-07-22T07:27:42;15.25;;;3.63;;
43678;SDS011;29279;50.858;4.392;2022-07-22T07:30:08;13.70;;;4.18;;
43678;SDS011;29279;50.858;4.392;2022-07-22T07:32:34;10.10;;;2.78;;
43678;SDS011;29279;50.858;4.392;2022-07-22T07:35:01;8.95;;;3.05;;
43678;SDS011;29279;50.858;4.392;2022-07-22T07:37:28;8.57;;;3.15;;
43678;SDS011;29279;50.858;4.392;2022-07-22T07:39:53;7.45;;;2.90;;
43678;SDS011;29279;50.858;4.392;2022-07-22T07:42:19;8.88;;;3.05;;
43678;SDS011;29279;50.858;4.392;2022-07-22T07:44:44;7.18;;;3.17;;
43678;SDS011;29279;50.858;4.392;2022-07-22T07:47:10;9.35;;;2.97;;
43678;SDS011;29279;50.858;4.392;2022-07-22T07:49:42;7.82;;;2.72;;
43678;SDS011;29279;50.858;4.392;2022-07-22T07:52:09;8.05;;;2.83;;
43678;SDS011;29279;50.858;4.392;2022-07-22T07:54:34;6.40;;;2.97;;
43678;SDS011;29279;50.858;4.392;2022-07-22T07:57:00;9.05;;;3.03;;
43678;SDS011;29279;50.858;4.392;2022-07-22T07:59:26;6.43;;;2.80;;
43678;SDS011;29279;50.858;4.392;2022-07-22T08:01:52;9.98;;;3.42;;
43678;SDS011;29279;50.858;4.392;2022-07-22T08:04:18;8.70;;;2.90;;
43678;SDS011;29279;50.858;4.392;2022-07-22T08:06:43;12.18;;;3.28;;
43678;SDS011;29279;50.858;4.392;2022-07-22T08:09:09;7.65;;;2.85;;
43678;SDS011;29279;50.858;4.392;2022-07-22T08:11:35;9.43;;;3.63;;
43678;SDS011;29279;50.858;4.392;2022-07-22T08:14:01;7.03;;;3.30;;
43678;SDS011;29279;50.858;4.392;2022-07-22T08:16:27;5.85;;;3.20;;
43678;SDS011;29279;50.858;4.392;2022-07-22T08:18:52;6.72;;;2.80;;
43678;SDS011;29279;50.858;4.392;2022-07-22T08:21:18;7.82;;;3.05;;
43678;SDS011;29279;50.858;4.392;2022-07-22T08:23:44;7.70;;;2.78;;
43678;SDS011;29279;50.858;4.392;2022-07-22T08:26:09;7.60;;;3.35;;
43678;SDS011;29279;50.858;4.392;2022-07-22T08:28:35;9.73;;;3.50;;
43678;SDS011;29279;50.858;4.392;2022-07-22T08:31:01;12.10;;;3.78;;
43678;SDS011;29279;50.858;4.392;2022-07-22T08:33:26;9.20;;;3.45;;
43678;SDS011;29279;50.858;4.392;2022-07-22T08:35:52;10.23;;;3.95;;
43678;SDS011;29279;50.858;4.392;2022-07-22T08:38:18;6.50;;;3.15;;
43678;SDS011;29279;50.858;4.392;2022-07-22T08:40:43;7.45;;;3.40;;
43678;SDS011;29279;50.858;4.392;2022-07-22T08:43:09;7.18;;;3.15;;
43678;SDS011;29279;50.858;4.392;2022-07-22T08:45:35;7.45;;;3.50;;
43678;SDS011;29279;50.858;4.392;2022-07-22T08:48:00;7.55;;;3.50;;
43678;SDS011;29279;50.858;4.392;2022-07-22T08:50:28;7.57;;;3.13;;
43678;SDS011;29279;50.858;4.392;2022-07-22T08:52:55;8.75;;;2.90;;
43678;SDS011;29279;50.858;4.392;2022-07-22T08:55:22;5.80;;;2.90;;
43678;SDS011;29279;50.858;4.392;2022-07-22T08:57:48;7.95;;;3.08;;
43678;SDS011;29279;50.858;4.392;2022-07-22T09:00:15;5.13;;;3.00;;
43678;SDS011;29279;50.858;4.392;2022-07-22T09:02:43;7.00;;;3.10;;
43678;SDS011;29279;50.858;4.392;2022-07-22T09:05:10;8.07;;;3.22;;
43678;SDS011;29279;50.858;4.392;2022-07-22T09:07:40;8.02;;;3.08;;
43678;SDS011;29279;50.858;4.392;2022-07-22T09:10:12;6.68;;;2.90;;
43678;SDS011;29279;50.858;4.392;2022-07-22T09:12:50;7.63;;;2.97;;
43678;SDS011;29279;50.858;4.392;2022-07-22T09:17:53;6.18;;;3.28;;
43678;SDS011;29279;50.858;4.392;2022-07-22T09:20:20;7.05;;;3.05;;
43678;SDS011;29279;50.858;4.392;2022-07-22T09:22:46;7.85;;;2.92;;
43678;SDS011;29279;50.858;4.392;2022-07-22T09:27:45;7.78;;;3.30;;
43678;SDS011;29279;50.858;4.392;2022-07-22T09:30:16;7.40;;;2.78;;
43678;SDS011;29279;50.858;4.392;2022-07-22T09:32:43;4.65;;;2.67;;
43678;SDS011;29279;50.858;4.392;2022-07-22T09:35:10;5.82;;;2.45;;
43678;SDS011;29279;50.858;4.392;2022-07-22T09:37:37;6.57;;;2.72;;
43678;SDS011;29279;50.858;4.392;2022-07-22T09:40:16;5.18;;;2.65;;
43678;SDS011;29279;50.858;4.392;2022-07-22T09:42:48;6.72;;;2.30;;
43678;SDS011;29279;50.858;4.392;2022-07-22T09:45:18;8.00;;;3.30;;
43678;SDS011;29279;50.858;4.392;2022-07-22T09:47:46;8.18;;;3.30;;
43678;SDS011;29279;50.858;4.392;2022-07-22T09:50:16;6.75;;;3.10;;
43678;SDS011;29279;50.858;4.392;2022-07-22T09:52:42;7.75;;;2.90;;
43678;SDS011;29279;50.858;4.392;2022-07-22T09:55:09;8.07;;;2.97;;
43678;SDS011;29279;50.858;4.392;2022-07-22T09:57:35;6.07;;;2.80;;
43678;SDS011;29279;50.858;4.392;2022-07-22T10:00:00;5.85;;;2.55;;
43678;SDS011;29279;50.858;4.392;2022-07-22T10:02:27;5.43;;;2.58;;
43678;SDS011;29279;50.858;4.392;2022-07-22T10:04:54;5.72;;;2.67;;
43678;SDS011;29279;50.858;4.392;2022-07-22T10:07:23;6.45;;;3.17;;
43678;SDS011;29279;50.858;4.392;2022-07-22T10:09:51;7.45;;;2.58;;
43678;SDS011;29279;50.858;4.392;2022-07-22T10:12:17;10.00;;;2.47;;
43678;SDS011;29279;50.858;4.392;2022-07-22T10:14:44;5.85;;;2.70;;
43678;SDS011;29279;50.858;4.392;2022-07-22T10:17:14;6.90;;;3.10;;
43678;SDS011;29279;50.858;4.392;2022-07-22T10:19:40;5.20;;;3.05;;
43678;SDS011;29279;50.858;4.392;2022-07-22T10:25:04;10.57;;;3.05;;
43678;SDS011;29279;50.858;4.392;2022-07-22T10:30:34;7.40;;;2.70;;
43678;SDS011;29279;50.858;4.392;2022-07-22T10:33:04;9.93;;;3.35;;
43678;SDS011;29279;50.858;4.392;2022-07-22T10:38:08;5.97;;;2.60;;
43678;SDS011;29279;50.858;4.392;2022-07-22T10:40:48;7.85;;;2.47;;
43678;SDS011;29279;50.858;4.392;2022-07-22T10:43:21;11.40;;;3.05;;
43678;SDS011;29279;50.858;4.392;2022-07-22T10:48:23;6.80;;;2.70;;
43678;SDS011;29279;50.858;4.392;2022-07-22T10:51:15;7.10;;;2.47;;
43678;SDS011;29279;50.858;4.392;2022-07-22T10:56:28;8.35;;;2.75;;
43678;SDS011;29279;50.858;4.392;2022-07-22T11:01:33;10.48;;;3.58;;
43678;SDS011;29279;50.858;4.392;2022-07-22T11:04:18;7.47;;;2.75;;
43678;SDS011;29279;50.858;4.392;2022-07-22T11:06:49;5.45;;;2.25;;
43678;SDS011;29279;50.858;4.392;2022-07-22T11:09:17;6.53;;;2.80;;
43678;SDS011;29279;50.858;4.392;2022-07-22T11:11:45;6.32;;;3.22;;
43678;SDS011;29279;50.858;4.392;2022-07-22T11:14:20;12.63;;;3.63;;
43678;SDS011;29279;50.858;4.392;2022-07-22T11:16:50;5.85;;;2.40;;
43678;SDS011;29279;50.858;4.392;2022-07-22T11:19:20;4.88;;;2.22;;
43678;SDS011;29279;50.858;4.392;2022-07-22T11:21:54;6.80;;;2.30;;
43678;SDS011;29279;50.858;4.392;2022-07-22T11:24:27;6.32;;;2.45;;
43678;SDS011;29279;50.858;4.392;2022-07-22T11:26:55;6.53;;;3.05;;
43678;SDS011;29279;50.858;4.392;2022-07-22T11:29:26;6.28;;;2.97;;
43678;SDS011;29279;50.858;4.392;2022-07-22T11:31:54;4.70;;;2.17;;
43678;SDS011;29279;50.858;4.392;2022-07-22T11:34:21;6.55;;;2.88;;
43678;SDS011;29279;50.858;4.392;2022-07-22T11:36:48;8.23;;;3.20;;
43678;SDS011;29279;50.858;4.392;2022-07-22T11:39:18;5.70;;;2.75;;
43678;SDS011;29279;50.858;4.392;2022-07-22T11:41:45;4.38;;;2.33;;
43678;SDS011;29279;50.858;4.392;2022-07-22T11:44:11;4.38;;;2.58;;
43678;SDS011;29279;50.858;4.392;2022-07-22T11:46:41;4.78;;;2.33;;
43678;SDS011;29279;50.858;4.392;2022-07-22T11:49:08;7.55;;;3.15;;
43678;SDS011;29279;50.858;4.392;2022-07-22T11:51:35;3.88;;;2.08;;
43678;SDS011;29279;50.858;4.392;2022-07-22T11:54:03;8.13;;;3.60;;
43678;SDS011;29279;50.858;4.392;2022-07-22T11:56:29;10.27;;;3.83;;
43678;SDS011;29279;50.858;4.392;2022-07-22T11:58:55;6.53;;;3.42;;
43678;SDS011;29279;50.858;4.392;2022-07-22T12:01:25;6.93;;;2.78;;
43678;SDS011;29279;50.858;4.392;2022-07-22T12:03:53;9.20;;;3.65;;
43678;SDS011;29279;50.858;4.392;2022-07-22T12:06:21;7.13;;;3.35;;
43678;SDS011;29279;50.858;4.392;2022-07-22T12:08:48;8.13;;;2.92;;
43678;SDS011;29279;50.858;4.392;2022-07-22T12:11:19;8.45;;;3.67;;
43678;SDS011;29279;50.858;4.392;2022-07-22T12:13:49;6.80;;;2.83;;
43678;SDS011;29279;50.858;4.392;2022-07-22T12:18:51;6.30;;;3.47;;
43678;SDS011;29279;50.858;4.392;2022-07-22T12:21:22;8.27;;;3.50;;
43678;SDS011;29279;50.858;4.392;2022-07-22T12:24:10;8.70;;;3.38;;
43678;SDS011;29279;50.858;4.392;2022-07-22T12:29:21;7.72;;;3.38;;
43678;SDS011;29279;50.858;4.392;2022-07-22T12:31:50;8.88;;;4.65;;
43678;SDS011;29279;50.858;4.392;2022-07-22T12:34:39;10.50;;;4.32;;
43678;SDS011;29279;50.858;4.392;2022-07-22T12:37:17;6.25;;;3.05;;
43678;SDS011;29279;50.858;4.392;2022-07-22T12:39:54;7.90;;;3.75;;
43678;SDS011;29279;50.858;4.392;2022-07-22T12:42:43;6.57;;;3.28;;
43678;SDS011;29279;50.858;4.392;2022-07-22T12:45:12;8.25;;;3.63;;
43678;SDS011;29279;50.858;4.392;2022-07-22T12:53:25;7.05;;;3.90;;
43678;SDS011;29279;50.858;4.392;2022-07-22T12:55:54;13.35;;;4.80;;
43678;SDS011;29279;50.858;4.392;2022-07-22T12:58:26;8.68;;;3.90;;
43678;SDS011;29279;50.858;4.392;2022-07-22T13:00:53;4.88;;;3.30;;
43678;SDS011;29279;50.858;4.392;2022-07-22T13:03:21;7.97;;;3.28;;
43678;SDS011;29279;50.858;4.392;2022-07-22T13:05:53;7.50;;;3.80;;
43678;SDS011;29279;50.858;4.392;2022-07-22T13:08:20;6.57;;;3.58;;
43678;SDS011;29279;50.858;4.392;2022-07-22T13:10:46;7.72;;;3.33;;
43678;SDS011;29279;50.858;4.392;2022-07-22T13:13:12;5.78;;;3.42;;
43678;SDS011;29279;50.858;4.392;2022-07-22T13:15:38;11.40;;;4.80;;
43678;SDS011;29279;50.858;4.392;2022-07-22T13:18:04;5.63;;;3.28;;
43678;SDS011;29279;50.858;4.392;2022-07-22T13:20:30;5.68;;;3.45;;
43678;SDS011;29279;50.858;4.392;2022-07-22T13:22:56;6.00;;;3.38;;
43678;SDS011;29279;50.858;4.392;2022-07-22T13:25:21;7.05;;;2.83;;
43678;SDS011;29279;50.858;4.392;2022-07-22T13:27:51;6.20;;;2.95;;
43678;SDS011;29279;50.858;4.392;2022-07-22T13:30:17;10.13;;;3.75;;
43678;SDS011;29279;50.858;4.392;2022-07-22T13:32:43;12.90;;;4.05;;
43678;SDS011;29279;50.858;4.392;2022-07-22T13:35:09;9.88;;;3.20;;
43678;SDS011;29279;50.858;4.392;2022-07-22T13:37:35;4.82;;;2.60;;
43678;SDS011;29279;50.858;4.392;2022-07-22T13:40:01;10.05;;;3.70;;
43678;SDS011;29279;50.858;4.392;2022-07-22T13:42:27;5.13;;;2.72;;
43678;SDS011;29279;50.858;4.392;2022-07-22T13:44:53;5.47;;;3.45;;
43678;SDS011;29279;50.858;4.392;2022-07-22T13:47:19;5.95;;;2.85;;
43678;SDS011;29279;50.858;4.392;2022-07-22T13:49:45;8.75;;;3.33;;
43678;SDS011;29279;50.858;4.392;2022-07-22T13:52:11;6.63;;;2.70;;
43678;SDS011;29279;50.858;4.392;2022-07-22T13:54:38;8.00;;;3.05;;
43678;SDS011;29279;50.858;4.392;2022-07-22T13:57:04;7.90;;;3.53;;
43678;SDS011;29279;50.858;4.392;2022-07-22T13:59:30;6.03;;;2.53;;
43678;SDS011;29279;50.858;4.392;2022-07-22T14:01:57;6.75;;;2.60;;
43678;SDS011;29279;50.858;4.392;2022-07-22T14:04:23;8.25;;;3.50;;
43678;SDS011;29279;50.858;4.392;2022-07-22T14:06:50;7.53;;;2.85;;
43678;SDS011;29279;50.858;4.392;2022-07-22T14:09:16;4.97;;;2.50;;
43678;SDS011;29279;50.858;4.392;2022-07-22T14:11:41;8.88;;;3.05;;
43678;SDS011;29279;50.858;4.392;2022-07-22T14:14:07;7.10;;;3.60;;
43678;SDS011;29279;50.858;4.392;2022-07-22T14:16:34;3.60;;;2.40;;
43678;SDS011;29279;50.858;4.392;2022-07-22T14:19:05;5.95;;;2.65;;
43678;SDS011;29279;50.858;4.392;2022-07-22T14:21:39;5.10;;;2.28;;
43678;SDS011;29279;50.858;4.392;2022-07-22T14:24:07;7.68;;;3.45;;
43678;SDS011;29279;50.858;4.392;2022-07-22T14:26:33;4.45;;;2.25;;
43678;SDS011;29279;50.858;4.392;2022-07-22T14:29:00;8.15;;;3.55;;
43678;SDS011;29279;50.858;4.392;2022-07-22T14:31:27;6.55;;;2.67;;
43678;SDS011;29279;50.858;4.392;2022-07-22T14:33:53;7.22;;;3.20;;
43678;SDS011;29279;50.858;4.392;2022-07-22T14:36:20;6.03;;;3.15;;
43678;SDS011;29279;50.858;4.392;2022-07-22T14:38:45;7.43;;;3.10;;
43678;SDS011;29279;50.858;4.392;2022-07-22T14:41:11;4.63;;;2.72;;
43678;SDS011;29279;50.858;4.392;2022-07-22T14:43:37;6.10;;;2.85;;
43678;SDS011;29279;50.858;4.392;2022-07-22T14:46:03;5.93;;;2.55;;
43678;SDS011;29279;50.858;4.392;2022-07-22T14:48:32;5.55;;;2.75;;
43678;SDS011;29279;50.858;4.392;2022-07-22T14:50:58;6.10;;;2.83;;
43678;SDS011;29279;50.858;4.392;2022-07-22T14:53:24;8.82;;;3.40;;
43678;SDS011;29279;50.858;4.392;2022-07-22T14:55:50;6.53;;;2.72;;
43678;SDS011;29279;50.858;4.392;2022-07-22T14:58:16;6.07;;;2.85;;
43678;SDS011;29279;50.858;4.392;2022-07-22T15:00:43;5.07;;;2.85;;
43678;SDS011;29279;50.858;4.392;2022-07-22T15:03:08;6.88;;;3.20;;
43678;SDS011;29279;50.858;4.392;2022-07-22T15:05:34;6.40;;;3.13;;
43678;SDS011;29279;50.858;4.392;2022-07-22T15:08:00;13.77;;;4.05;;
43678;SDS011;29279;50.858;4.392;2022-07-22T15:10:25;5.25;;;3.38;;
43678;SDS011;29279;50.858;4.392;2022-07-22T15:12:51;6.40;;;3.72;;